Terminal Aerodrome Forecast
Issued by NWS Blacksburg, VA

Home | Current Version | Previous Version | Text Only | Print | Product List | Glossary On
Versions: 1 2 3 4 5 6 7 8 9 10 11 12 13 14 15 16 17 18 19 20
000
FTUS41 KRNK 281601 AAD
TAFLYH
TAF AMD
KLYH 281601Z 2816/2912 24005KT P6SM VCSH SCT015 BKN060
     FM281800 25010KT P6SM -SHRA VCTS SCT050CB BKN130
     FM282200 29006KT P6SM SCT250
     FM290900 35004KT P6SM FEW040=

USA.gov is the U.S. government's official web portal to all federal, state and local government web resources and services.